createdAt,value
2022-12-01T00:00:48.926Z,3.71
2022-12-01T00:03:15.656Z,3.66
2022-12-01T00:05:41.855Z,3.72
2022-12-01T00:08:08.025Z,3.66
2022-12-01T00:10:34.158Z,3.61
2022-12-01T00:13:00.239Z,3.59
2022-12-01T00:15:26.331Z,3.74
2022-12-01T00:17:52.436Z,3.80
2022-12-01T00:20:18.538Z,3.84
2022-12-01T00:22:44.619Z,3.64
2022-12-01T00:25:10.723Z,3.58
2022-12-01T00:27:36.841Z,3.66
2022-12-01T00:30:02.948Z,3.80
2022-12-01T00:32:29.065Z,3.77
2022-12-01T00:34:55.150Z,3.72
2022-12-01T00:37:21.231Z,3.74
2022-12-01T00:39:47.704Z,3.69
2022-12-01T00:42:14.108Z,3.75
2022-12-01T00:44:40.207Z,3.90
2022-12-01T00:47:06.321Z,3.91
2022-12-01T00:49:32.408Z,3.90
2022-12-01T00:51:58.524Z,3.91
2022-12-01T00:54:24.645Z,3.92
2022-12-01T00:56:50.736Z,3.80
2022-12-01T00:59:16.837Z,3.90
2022-12-01T01:01:42.999Z,3.91
2022-12-01T01:04:09.143Z,3.85
2022-12-01T01:06:35.251Z,3.96
2022-12-01T01:09:01.446Z,3.92
2022-12-01T01:11:27.537Z,3.83
2022-12-01T01:13:53.634Z,3.92
2022-12-01T01:16:19.825Z,3.76
2022-12-01T01:18:45.946Z,3.85
2022-12-01T01:21:12.045Z,3.93
2022-12-01T01:23:38.149Z,3.87
2022-12-01T01:26:04.252Z,3.88
2022-12-01T01:28:30.338Z,3.93
2022-12-01T01:30:56.508Z,3.89
2022-12-01T01:33:22.643Z,3.97
2022-12-01T01:35:48.724Z,3.84
2022-12-01T01:38:14.840Z,3.83
2022-12-01T01:40:40.960Z,3.79
2022-12-01T01:43:07.060Z,3.81
2022-12-01T01:45:33.158Z,3.79
2022-12-01T01:47:59.255Z,3.87
2022-12-01T01:50:25.349Z,3.84
2022-12-01T01:52:51.465Z,3.80
2022-12-01T01:55:17.566Z,3.75
2022-12-01T01:57:43.650Z,3.79
2022-12-01T02:00:09.803Z,3.73
2022-12-01T02:02:35.959Z,3.78
2022-12-01T02:05:02.105Z,3.73
2022-12-01T02:07:28.718Z,3.83
2022-12-01T02:09:54.865Z,3.83
2022-12-01T02:12:20.960Z,3.83
2022-12-01T02:14:47.109Z,3.74
2022-12-01T02:17:13.207Z,3.83
2022-12-01T02:19:39.287Z,3.71
2022-12-01T02:22:05.383Z,3.60
2022-12-01T02:24:31.467Z,3.59
2022-12-01T02:26:57.569Z,3.67
2022-12-01T02:29:23.680Z,3.65
2022-12-01T02:31:49.796Z,3.75
2022-12-01T02:34:15.882Z,3.86
2022-12-01T02:36:41.988Z,3.86
2022-12-01T02:39:08.082Z,3.85
2022-12-01T02:41:34.230Z,3.71
2022-12-01T02:44:00.357Z,3.58
2022-12-01T02:46:26.520Z,3.65
2022-12-01T02:48:52.625Z,3.82
2022-12-01T02:51:18.740Z,3.81
2022-12-01T02:53:44.823Z,3.79
2022-12-01T02:56:10.916Z,3.51
2022-12-01T02:58:37.041Z,3.58
2022-12-01T03:01:03.227Z,3.67
2022-12-01T03:03:29.402Z,3.72
2022-12-01T03:05:55.858Z,3.74
2022-12-01T03:08:21.938Z,3.66
2022-12-01T03:10:48.027Z,3.71
2022-12-01T03:13:14.157Z,3.74
2022-12-01T03:15:40.296Z,3.52
2022-12-01T03:18:06.394Z,3.54
2022-12-01T03:20:32.517Z,3.51
2022-12-01T03:22:58.616Z,3.56
2022-12-01T03:25:24.714Z,3.54
2022-12-01T03:28:19.821Z,3.49
2022-12-01T03:30:36.878Z,3.52
2022-12-01T03:33:02.989Z,3.49
2022-12-01T03:35:29.084Z,3.56
2022-12-01T03:37:55.185Z,3.56
2022-12-01T03:40:21.296Z,3.37
2022-12-01T03:42:47.380Z,3.30
2022-12-01T03:45:13.484Z,3.44
2022-12-01T03:47:39.608Z,3.51
2022-12-01T03:50:05.708Z,3.48
2022-12-01T03:52:31.808Z,3.28
2022-12-01T03:54:57.947Z,3.40
2022-12-01T03:57:24.037Z,3.39
2022-12-01T03:59:50.404Z,3.34
2022-12-01T04:02:16.825Z,3.32
2022-12-01T04:04:42.921Z,3.45
2022-12-01T04:07:09.018Z,3.49
2022-12-01T04:09:35.405Z,3.51
2022-12-01T04:12:01.512Z,3.61
2022-12-01T04:14:27.604Z,3.59
2022-12-01T04:16:53.736Z,3.63
2022-12-01T04:19:19.823Z,3.63
2022-12-01T04:21:45.919Z,3.47
2022-12-01T04:24:12.080Z,3.38
2022-12-01T04:26:38.176Z,3.39
2022-12-01T04:29:04.271Z,3.41
2022-12-01T04:31:30.474Z,3.50
2022-12-01T04:33:56.612Z,3.53
2022-12-01T04:36:22.713Z,3.39
2022-12-01T04:38:48.836Z,3.53
2022-12-01T04:41:14.936Z,3.61
2022-12-01T04:43:41.030Z,3.64
2022-12-01T04:46:07.256Z,3.40
2022-12-01T04:48:33.391Z,3.35
2022-12-01T04:50:59.488Z,3.37
2022-12-01T04:53:25.615Z,3.35
2022-12-01T04:55:51.705Z,3.38
2022-12-01T04:58:17.804Z,3.49
2022-12-01T05:00:43.972Z,3.30
2022-12-01T05:03:14.889Z,3.27
2022-12-01T05:05:41.363Z,3.27
2022-12-01T05:08:07.983Z,3.39
2022-12-01T05:10:34.111Z,3.39
2022-12-01T05:13:00.205Z,3.27
2022-12-01T05:15:26.369Z,3.35
2022-12-01T05:17:52.461Z,3.28
2022-12-01T05:20:18.548Z,3.36
2022-12-01T05:23:04.767Z,3.45
2022-12-01T05:25:30.788Z,3.31
2022-12-01T05:27:57.184Z,3.28
2022-12-01T05:30:28.320Z,3.36
2022-12-01T05:32:54.763Z,3.29
2022-12-01T05:35:20.884Z,3.37
2022-12-01T05:37:46.967Z,3.16
2022-12-01T05:40:13.055Z,3.27
2022-12-01T05:42:39.168Z,3.22
2022-12-01T05:45:05.262Z,3.16
2022-12-01T05:47:31.380Z,3.27
2022-12-01T05:50:02.236Z,3.30
2022-12-01T05:52:31.458Z,3.37
2022-12-01T05:54:57.570Z,3.38
2022-12-01T05:57:23.689Z,3.11
2022-12-01T05:59:49.933Z,3.05
2022-12-01T06:02:16.229Z,3.26
2022-12-01T06:04:42.368Z,3.08
2022-12-01T06:07:08.451Z,3.14
2022-12-01T06:09:34.543Z,3.22
2022-12-01T06:12:00.941Z,3.18
2022-12-01T06:14:27.053Z,3.13
2022-12-01T06:16:53.214Z,2.98
2022-12-01T06:19:19.339Z,3.01
2022-12-01T06:21:45.447Z,3.09
2022-12-01T06:24:11.532Z,3.07
2022-12-01T06:26:37.667Z,3.16
2022-12-01T06:29:03.773Z,3.14
2022-12-01T06:31:29.933Z,2.98
2022-12-01T06:33:56.080Z,2.98
2022-12-01T06:36:22.176Z,3.09
2022-12-01T06:38:48.272Z,3.02
2022-12-01T06:41:14.368Z,3.05
2022-12-01T06:43:40.465Z,3.02
2022-12-01T06:46:06.655Z,3.05
2022-12-01T06:48:32.839Z,3.08
2022-12-01T06:50:58.942Z,3.12
2022-12-01T06:53:25.109Z,3.08
2022-12-01T06:55:51.226Z,2.94
2022-12-01T06:58:17.456Z,3.03
2022-12-01T07:00:46.437Z,3.07
2022-12-01T07:03:16.640Z,3.07
2022-12-01T07:05:42.732Z,2.99
2022-12-01T07:08:08.856Z,3.06
2022-12-01T07:10:35.039Z,2.97
2022-12-01T07:13:01.138Z,2.97
2022-12-01T07:15:27.241Z,3.22
2022-12-01T07:17:53.394Z,3.08
2022-12-01T07:20:19.488Z,3.21
2022-12-01T07:22:45.595Z,3.19
2022-12-01T07:25:11.728Z,3.23
2022-12-01T07:27:37.863Z,3.23
2022-12-01T07:30:03.947Z,3.30
2022-12-01T07:32:30.404Z,3.13
2022-12-01T07:34:56.602Z,3.12
2022-12-01T07:37:22.746Z,3.17
2022-12-01T07:39:49.031Z,3.27
2022-12-01T07:42:15.373Z,3.14
2022-12-01T07:44:41.451Z,3.21
2022-12-01T07:47:07.570Z,3.12
2022-12-01T07:49:33.669Z,3.20
2022-12-01T07:51:59.776Z,3.03
2022-12-01T07:54:25.887Z,3.04
2022-12-01T07:56:51.990Z,3.18
2022-12-01T07:59:18.116Z,3.08
2022-12-01T08:01:44.882Z,3.07
2022-12-01T08:04:11.179Z,3.09
2022-12-01T08:06:37.282Z,3.15
2022-12-01T08:09:03.399Z,3.04
2022-12-01T08:11:29.505Z,2.95
2022-12-01T08:13:55.595Z,2.99
2022-12-01T08:16:22.246Z,2.99
2022-12-01T08:18:48.347Z,3.00
2022-12-01T08:21:14.433Z,3.12
2022-12-01T08:23:40.533Z,3.10
2022-12-01T08:26:06.619Z,3.01
2022-12-01T08:28:32.703Z,2.99
2022-12-01T08:30:58.882Z,3.02
2022-12-01T08:33:25.084Z,3.13
2022-12-01T08:35:51.204Z,3.04
2022-12-01T08:38:17.320Z,2.93
2022-12-01T08:40:43.500Z,3.05
2022-12-01T08:43:15.154Z,3.05
2022-12-01T08:45:49.153Z,2.98
2022-12-01T08:48:15.281Z,2.83
2022-12-01T08:50:41.375Z,3.06
2022-12-01T08:53:07.489Z,3.11
2022-12-01T08:55:33.590Z,3.03
2022-12-01T08:57:59.737Z,3.03
2022-12-01T09:00:25.850Z,3.07
2022-12-01T09:02:51.977Z,2.97
2022-12-01T09:05:18.111Z,2.93
2022-12-01T09:07:44.287Z,3.11
2022-12-01T09:10:10.435Z,3.20
2022-12-01T09:12:36.528Z,3.19
2022-12-01T09:15:02.683Z,3.15
2022-12-01T09:17:28.851Z,2.98
2022-12-01T09:19:54.941Z,3.23
2022-12-01T09:22:21.330Z,3.25
2022-12-01T09:24:47.417Z,3.33
2022-12-01T09:27:13.499Z,3.18
2022-12-01T09:29:39.645Z,3.29
2022-12-01T09:32:05.739Z,3.06
2022-12-01T09:34:31.845Z,3.24
2022-12-01T09:36:57.980Z,3.32
2022-12-01T09:39:24.141Z,3.42
2022-12-01T09:41:50.247Z,3.39
2022-12-01T09:44:16.398Z,3.40
2022-12-01T09:46:42.540Z,3.47
2022-12-01T09:49:08.691Z,3.48
2022-12-01T09:51:34.840Z,3.47
2022-12-01T09:54:00.971Z,3.38
2022-12-01T09:56:27.053Z,3.41
2022-12-01T09:58:53.171Z,3.24
2022-12-01T10:01:24.464Z,3.29
2022-12-01T10:03:53.151Z,3.41
2022-12-01T10:06:27.214Z,3.66
2022-12-01T10:08:54.054Z,3.72
2022-12-01T10:11:20.187Z,3.81
2022-12-01T10:13:46.279Z,3.58
2022-12-01T10:16:12.431Z,3.66
2022-12-01T10:18:38.580Z,3.72
2022-12-01T10:21:04.679Z,3.71
2022-12-01T10:23:30.771Z,3.79
2022-12-01T10:25:56.943Z,3.55
2022-12-01T10:28:23.081Z,3.73
2022-12-01T10:30:49.163Z,3.61
2022-12-01T10:33:15.285Z,3.59
2022-12-01T10:35:41.389Z,3.49
2022-12-01T10:38:07.502Z,3.36
2022-12-01T10:40:33.617Z,3.27
2022-12-01T10:42:59.699Z,3.61
2022-12-01T10:45:25.792Z,3.60
2022-12-01T10:47:57.537Z,3.63
2022-12-01T10:50:23.788Z,3.66
2022-12-01T10:52:49.996Z,3.53
2022-12-01T10:55:16.112Z,3.71
2022-12-01T10:57:42.207Z,3.72
2022-12-01T11:00:08.300Z,3.78
2022-12-01T11:02:34.592Z,3.96
2022-12-01T11:05:00.817Z,3.73
2022-12-01T11:07:26.938Z,3.99
2022-12-01T11:09:53.105Z,3.93
2022-12-01T11:12:19.188Z,3.86
2022-12-01T11:14:45.289Z,3.94
2022-12-01T11:17:11.409Z,3.82
2022-12-01T11:19:37.595Z,3.63
2022-12-01T11:22:03.710Z,3.75
2022-12-01T11:24:30.349Z,3.94
2022-12-01T11:26:56.465Z,4.10
2022-12-01T11:29:22.555Z,4.14
2022-12-01T11:31:48.702Z,4.11
2022-12-01T11:34:14.912Z,4.23
2022-12-01T11:36:41.001Z,4.20
2022-12-01T11:39:07.115Z,4.30
2022-12-01T11:41:33.220Z,3.95
2022-12-01T11:44:01.747Z,3.89
2022-12-01T11:46:28.816Z,3.83
2022-12-01T11:48:54.920Z,3.81
2022-12-01T11:51:21.007Z,3.85
2022-12-01T11:53:47.111Z,4.05
2022-12-01T11:56:13.190Z,4.27
2022-12-01T11:58:39.315Z,4.10
2022-12-01T12:01:05.483Z,4.20
2022-12-01T12:03:31.665Z,4.39
2022-12-01T12:06:17.813Z,4.47
2022-12-01T12:08:43.933Z,4.32
2022-12-01T12:11:10.142Z,4.60
2022-12-01T12:13:36.288Z,4.59
2022-12-01T12:16:02.484Z,4.56
2022-12-01T12:18:28.575Z,4.58
2022-12-01T12:20:54.667Z,4.51
2022-12-01T12:23:20.767Z,4.32
2022-12-01T12:25:46.857Z,3.96
2022-12-01T12:28:12.951Z,4.22
2022-12-01T12:30:39.076Z,3.96
2022-12-01T12:33:05.219Z,3.79
2022-12-01T12:35:31.333Z,3.96
2022-12-01T12:37:57.488Z,3.89
2022-12-01T12:40:23.580Z,4.06
2022-12-01T12:42:49.663Z,4.07
2022-12-01T12:45:15.781Z,3.67
2022-12-01T12:47:41.877Z,3.55
2022-12-01T12:50:07.981Z,3.69
2022-12-01T12:52:34.567Z,3.73
2022-12-01T12:55:00.707Z,3.84
2022-12-01T12:57:26.820Z,3.92
2022-12-01T12:59:52.933Z,3.67
2022-12-01T13:02:19.061Z,3.91
2022-12-01T13:04:45.176Z,3.60
2022-12-01T13:07:11.297Z,3.87
2022-12-01T13:09:37.378Z,3.48
2022-12-01T13:12:03.461Z,3.66
2022-12-01T13:14:29.564Z,3.39
2022-12-01T13:16:55.661Z,3.59
2022-12-01T13:19:21.741Z,3.60
2022-12-01T13:21:47.905Z,3.75
2022-12-01T13:24:16.287Z,3.40
2022-12-01T13:26:46.017Z,3.32
2022-12-01T13:29:12.605Z,3.37
2022-12-01T13:31:38.738Z,3.43
2022-12-01T13:34:04.886Z,3.27
2022-12-01T13:36:46.276Z,3.29
2022-12-01T13:39:12.695Z,3.65
2022-12-01T13:41:39.267Z,3.37
2022-12-01T13:44:05.499Z,3.46
2022-12-01T13:46:31.670Z,3.66
2022-12-01T13:48:57.821Z,3.61
2022-12-01T13:51:23.905Z,3.52
2022-12-01T13:53:50.004Z,3.48
2022-12-01T13:56:16.412Z,3.53
2022-12-01T13:58:42.499Z,3.44
2022-12-01T14:01:11.313Z,3.42
2022-12-01T14:03:37.780Z,3.16
2022-12-01T14:06:03.936Z,3.31
2022-12-01T14:08:30.021Z,3.63
2022-12-01T14:10:56.164Z,3.53
2022-12-01T14:13:22.258Z,3.38
2022-12-01T14:15:48.400Z,3.42
2022-12-01T14:18:14.568Z,3.42
2022-12-01T14:20:40.668Z,3.38
2022-12-01T14:23:06.761Z,3.49
2022-12-01T14:25:32.864Z,3.47
2022-12-01T14:27:58.965Z,3.36
2022-12-01T14:30:25.073Z,3.40
2022-12-01T14:32:51.680Z,3.44
2022-12-01T14:35:17.777Z,3.39
2022-12-01T14:37:43.895Z,3.42
2022-12-01T14:40:10.037Z,3.31
2022-12-01T14:42:36.139Z,3.27
2022-12-01T14:45:02.317Z,3.27
2022-12-01T14:47:28.452Z,3.31
2022-12-01T14:49:54.540Z,3.20
2022-12-01T14:52:20.682Z,3.17
2022-12-01T14:54:47.128Z,3.13
2022-12-01T14:57:16.745Z,3.16
2022-12-01T14:59:43.416Z,3.09
2022-12-01T15:02:09.670Z,3.12
2022-12-01T15:04:35.897Z,3.12
2022-12-01T15:07:01.999Z,3.09
2022-12-01T15:09:35.851Z,3.03
2022-12-01T15:12:02.349Z,3.03
2022-12-01T15:14:28.467Z,2.96
2022-12-01T15:16:54.623Z,2.87
2022-12-01T15:19:20.840Z,2.86
2022-12-01T15:21:46.920Z,2.86
2022-12-01T15:24:13.037Z,2.85
2022-12-01T15:26:39.157Z,2.82
2022-12-01T15:29:05.249Z,2.81
2022-12-01T15:31:31.395Z,2.83
2022-12-01T15:33:57.685Z,2.75
2022-12-01T15:36:23.788Z,2.76
2022-12-01T15:38:49.904Z,2.76
2022-12-01T15:41:31.483Z,2.73
2022-12-01T15:43:57.718Z,2.59
2022-12-01T15:46:23.836Z,2.61
2022-12-01T15:48:49.970Z,2.61
2022-12-01T15:51:16.076Z,2.58
2022-12-01T15:53:42.177Z,2.60
2022-12-01T15:56:08.288Z,2.60
2022-12-01T15:58:34.643Z,2.55
2022-12-01T16:01:00.753Z,2.55
2022-12-01T16:03:26.873Z,2.50
2022-12-01T16:05:52.985Z,2.46
2022-12-01T16:08:19.154Z,2.41
2022-12-01T16:10:45.326Z,2.48
2022-12-01T16:13:11.465Z,2.43
2022-12-01T16:15:37.553Z,2.27
2022-12-01T16:18:03.635Z,2.38
2022-12-01T16:20:29.768Z,2.34
2022-12-01T16:22:55.869Z,2.31
2022-12-01T16:25:21.978Z,2.33
2022-12-01T16:27:48.153Z,2.32
2022-12-01T16:30:14.263Z,2.29
2022-12-01T16:32:40.361Z,2.33
2022-12-01T16:35:06.459Z,2.22
2022-12-01T16:37:32.551Z,2.23
2022-12-01T16:39:58.646Z,2.20
2022-12-01T16:42:25.243Z,2.22
2022-12-01T16:44:51.585Z,2.22
2022-12-01T16:47:17.946Z,2.13
2022-12-01T16:49:44.063Z,2.13
2022-12-01T16:52:36.517Z,2.12
2022-12-01T16:54:56.232Z,2.09
2022-12-01T16:57:22.336Z,2.19
2022-12-01T16:59:48.419Z,2.26
2022-12-01T17:02:15.079Z,2.26
2022-12-01T17:04:41.204Z,2.25
2022-12-01T17:07:07.307Z,2.10
2022-12-01T17:09:33.404Z,2.00
2022-12-01T17:11:59.496Z,1.99
2022-12-01T17:14:25.589Z,2.08
2022-12-01T17:16:51.705Z,1.87
2022-12-01T17:19:18.229Z,2.07
2022-12-01T17:21:44.328Z,2.13
2022-12-01T17:24:10.433Z,1.96
2022-12-01T17:26:36.510Z,1.86
2022-12-01T17:29:02.595Z,1.88
2022-12-01T17:31:28.794Z,2.02
2022-12-01T17:33:54.930Z,2.06
2022-12-01T17:36:21.022Z,1.85
2022-12-01T17:38:47.133Z,1.90
2022-12-01T17:41:13.248Z,1.99
2022-12-01T17:43:39.334Z,1.81
2022-12-01T17:46:05.652Z,2.01
2022-12-01T17:48:31.794Z,1.81
2022-12-01T17:50:57.884Z,1.89
2022-12-01T17:53:24.001Z,1.74
2022-12-01T17:55:50.087Z,1.86
2022-12-01T17:58:16.166Z,1.78
2022-12-01T18:00:42.294Z,1.75
2022-12-01T18:03:08.382Z,1.86
2022-12-01T18:05:34.554Z,1.70
2022-12-01T18:08:00.980Z,1.61
2022-12-01T18:10:27.154Z,1.55
2022-12-01T18:12:53.250Z,1.61
2022-12-01T18:15:19.371Z,1.54
2022-12-01T18:17:45.470Z,1.57
2022-12-01T18:20:11.560Z,1.53
2022-12-01T18:22:37.677Z,1.60
2022-12-01T18:25:03.765Z,1.73
2022-12-01T18:27:29.856Z,1.52
2022-12-01T18:29:55.955Z,1.59
2022-12-01T18:32:22.040Z,1.66
2022-12-01T18:34:48.566Z,1.53
2022-12-01T18:37:14.983Z,1.73
2022-12-01T18:39:41.093Z,1.69
2022-12-01T18:42:07.182Z,1.58
2022-12-01T18:44:33.794Z,1.59
2022-12-01T18:46:59.930Z,1.63
2022-12-01T18:49:26.044Z,1.60
2022-12-01T18:51:52.146Z,1.70
2022-12-01T18:54:18.242Z,1.68
2022-12-01T18:56:44.328Z,1.58
2022-12-01T18:59:10.440Z,1.59
2022-12-01T19:01:36.618Z,1.47
2022-12-01T19:04:02.787Z,1.60
2022-12-01T19:06:28.878Z,1.65
2022-12-01T19:08:55.025Z,1.63
2022-12-01T19:11:21.123Z,1.68
2022-12-01T19:13:47.736Z,1.65
2022-12-01T19:16:13.864Z,1.76
2022-12-01T19:18:39.996Z,1.86
2022-12-01T19:21:06.127Z,1.77
2022-12-01T19:23:32.223Z,1.72
2022-12-01T19:25:58.304Z,1.70
2022-12-01T19:28:24.414Z,1.74
2022-12-01T19:30:50.508Z,1.82
2022-12-01T19:33:16.613Z,1.85
2022-12-01T19:35:42.752Z,1.87
2022-12-01T19:38:08.845Z,1.84
2022-12-01T19:40:34.938Z,1.72
2022-12-01T19:43:01.046Z,1.58
2022-12-01T19:45:27.146Z,1.65
2022-12-01T19:47:53.317Z,1.64
2022-12-01T19:50:19.418Z,1.68
2022-12-01T19:52:45.527Z,1.66
2022-12-01T19:55:11.631Z,1.76
2022-12-01T19:57:37.734Z,1.68
2022-12-01T20:00:03.836Z,1.66
2022-12-01T20:02:29.995Z,1.67
2022-12-01T20:04:56.131Z,1.74
2022-12-01T20:07:22.269Z,1.88
2022-12-01T20:09:50.035Z,1.86
2022-12-01T20:12:16.487Z,1.85
2022-12-01T20:14:42.652Z,1.77
2022-12-01T20:17:12.880Z,1.75
2022-12-01T20:19:41.721Z,1.73
2022-12-01T20:22:07.813Z,1.83
2022-12-01T20:24:33.918Z,1.82
2022-12-01T20:27:00.113Z,1.64
2022-12-01T20:29:26.236Z,1.67
2022-12-01T20:31:52.418Z,1.58
2022-12-01T20:34:20.477Z,1.53
2022-12-01T20:36:46.564Z,1.53
2022-12-01T20:39:12.655Z,1.58
2022-12-01T20:41:38.823Z,1.60
2022-12-01T20:44:07.558Z,1.56
2022-12-01T20:46:34.000Z,1.59
2022-12-01T20:49:00.110Z,1.53
2022-12-01T20:51:26.209Z,1.53
2022-12-01T20:54:19.755Z,1.35
2022-12-01T20:56:38.382Z,1.38
2022-12-01T20:59:04.468Z,1.36
2022-12-01T21:01:30.572Z,1.40
2022-12-01T21:03:56.728Z,1.56
2022-12-01T21:06:22.819Z,1.47
2022-12-01T21:08:48.896Z,1.38
2022-12-01T21:11:15.012Z,1.40
2022-12-01T21:13:41.092Z,1.31
2022-12-01T21:16:13.643Z,1.38
2022-12-01T21:18:40.743Z,1.31
2022-12-01T21:21:06.854Z,1.35
2022-12-01T21:23:32.956Z,1.28
2022-12-01T21:25:59.072Z,1.30
2022-12-01T21:28:25.162Z,1.31
2022-12-01T21:30:51.335Z,1.41
2022-12-01T21:33:17.496Z,1.43
2022-12-01T21:35:43.591Z,1.37
2022-12-01T21:38:09.693Z,1.42
2022-12-01T21:40:35.836Z,1.31
2022-12-01T21:43:01.937Z,1.13
2022-12-01T21:45:28.032Z,1.22
2022-12-01T21:47:54.172Z,1.20
2022-12-01T21:50:20.282Z,1.10
2022-12-01T21:52:46.374Z,1.19
2022-12-01T21:55:12.492Z,1.15
2022-12-01T21:57:42.376Z,1.19
2022-12-01T22:00:08.985Z,1.35
2022-12-01T22:02:35.170Z,1.33
2022-12-01T22:05:01.301Z,1.34
2022-12-01T22:07:27.418Z,1.39
2022-12-01T22:09:53.545Z,1.33
2022-12-01T22:12:19.652Z,1.38
2022-12-01T22:14:45.739Z,1.40
2022-12-01T22:17:11.844Z,1.33
2022-12-01T22:19:37.955Z,1.26
2022-12-01T22:22:04.035Z,1.33
2022-12-01T22:24:30.204Z,1.46
2022-12-01T22:26:56.301Z,1.55
2022-12-01T22:29:22.408Z,1.45
2022-12-01T22:31:48.524Z,1.35
2022-12-01T22:34:14.633Z,1.27
2022-12-01T22:36:40.728Z,1.15
2022-12-01T22:39:06.849Z,1.26
2022-12-01T22:41:32.930Z,1.13
2022-12-01T22:43:59.029Z,1.10
2022-12-01T22:46:25.191Z,1.31
2022-12-01T22:48:51.311Z,1.11
2022-12-01T22:51:17.404Z,1.17
2022-12-01T22:53:44.036Z,1.13
2022-12-01T22:56:10.132Z,1.25
2022-12-01T22:58:36.227Z,1.16
2022-12-01T23:01:02.346Z,1.04
2022-12-01T23:03:28.449Z,1.17
2022-12-01T23:05:54.545Z,1.16
2022-12-01T23:08:20.676Z,1.03
2022-12-01T23:10:46.768Z,1.08
2022-12-01T23:13:12.870Z,1.14
2022-12-01T23:15:39.087Z,1.02
2022-12-01T23:18:05.237Z,1.01
2022-12-01T23:20:31.328Z,1.06
2022-12-01T23:22:57.442Z,1.03
2022-12-01T23:25:23.566Z,1.01
2022-12-01T23:27:49.651Z,1.20
2022-12-01T23:30:15.765Z,1.23
2022-12-01T23:32:41.853Z,1.17
2022-12-01T23:35:07.955Z,1.06
2022-12-01T23:37:34.085Z,1.12
2022-12-01T23:40:00.188Z,1.26
2022-12-01T23:42:26.273Z,1.18
2022-12-01T23:44:52.622Z,1.08
2022-12-01T23:47:18.965Z,1.21
2022-12-01T23:49:45.064Z,1.28
2022-12-01T23:52:11.174Z,1.15
2022-12-01T23:54:37.269Z,1.22
2022-12-01T23:57:03.369Z,1.13
2022-12-01T23:59:29.505Z,1.07
